Time;durP1;ratioP1;P1;durP2;ratioP2;P2;SDS_P1;SDS_P2;PMS_P1;PMS_P2;Temp;Humidity;BMP_temperature;BMP_pressure;BME280_temperature;BME280_humidity;BME280_pressure;Samples;Min_cycle;Max_cycle;Signal;HPM_P1;HPM_P2
2022/05/06 00:01:53;;;;;;;22.67;19.20;;;;;;;12.57;84.99;102528.84;5074860;28;20449;-35
2022/05/06 00:04:18;;;;;;;23.07;19.43;;;;;;;12.55;85.16;102531.78;5075134;28;20364;-35
2022/05/06 00:06:44;;;;;;;25.40;19.37;;;;;;;12.55;85.42;102523.63;5074883;28;20024;-35
2022/05/06 00:09:09;;;;;;;24.90;20.50;;;;;;;12.32;86.25;102532.09;5074852;28;20471;-35
2022/05/06 00:11:35;;;;;;;24.10;19.95;;;;;;;12.32;86.40;102525.81;5074515;28;20043;-35
2022/05/06 00:14:00;;;;;;;22.65;18.45;;;;;;;12.23;86.11;102527.88;5074905;28;20028;-35
2022/05/06 00:16:27;;;;;;;20.25;18.02;;;;;;;12.22;85.86;102523.47;5074480;28;20032;-35
2022/05/06 00:18:52;;;;;;;;;;;;;;;12.43;83.44;102527.13;5074703;28;20483;-35
2022/05/06 00:21:18;;;;;;;21.98;18.77;;;;;;;12.20;86.50;102522.84;5074965;28;19912;-35
2022/05/06 00:23:44;;;;;;;22.58;20.17;;;;;;;12.24;86.17;102524.09;5074573;28;20040;-35
2022/05/06 00:26:09;;;;;;;20.60;17.20;;;;;;;12.29;86.03;102531.63;5074198;28;20021;-35
2022/05/06 00:28:36;;;;;;;23.83;19.63;;;;;;;12.05;86.02;102523.00;5073868;28;20074;-35
2022/05/06 00:31:03;;;;;;;18.33;15.98;;;;;;;12.16;85.28;102532.44;5074194;28;20032;-35
2022/05/06 00:33:29;;;;;;;23.33;18.05;;;;;;;12.16;86.29;102542.44;5074374;28;20048;-35
2022/05/06 00:35:59;;;;;;;21.75;17.80;;;;;;;12.03;86.36;102519.63;5073930;28;20158;-35
2022/05/06 00:38:25;;;;;;;24.10;19.65;;;;;;;12.16;86.73;102534.31;5073664;28;20339;-35
2022/05/06 00:40:52;;;;;;;22.60;20.02;;;;;;;12.03;87.05;102538.59;5074150;28;20035;-35
2022/05/06 00:43:18;;;;;;;21.15;17.70;;;;;;;12.03;84.80;102535.88;5073812;28;20055;-35
2022/05/06 00:45:52;;;;;;;19.70;17.63;;;;;;;12.08;86.12;102538.84;5074034;28;20073;-35
2022/05/06 00:48:20;;;;;;;20.33;18.05;;;;;;;11.93;87.01;102538.13;5073694;28;20021;-35
2022/05/06 00:50:46;;;;;;;20.15;17.50;;;;;;;11.98;86.53;102529.41;5073675;28;20079;-35
2022/05/06 00:53:15;;;;;;;21.58;18.98;;;;;;;11.90;86.80;102534.97;5073351;28;20028;-35
2022/05/06 00:55:42;;;;;;;21.95;18.95;;;;;;;11.87;87.78;102530.78;5074382;28;20032;-35
2022/05/06 00:58:07;;;;;;;26.23;20.00;;;;;;;11.87;87.12;102525.38;5073169;28;20064;-35
2022/05/06 01:00:33;;;;;;;22.55;19.08;;;;;;;11.90;87.52;102533.09;5074249;28;20101;-35
2022/05/06 01:02:59;;;;;;;22.25;19.75;;;;;;;11.75;87.40;102510.66;5073763;28;20380;-35
2022/05/06 01:05:26;;;;;;;21.65;19.35;;;;;;;11.87;87.58;102535.38;5074257;28;20491;-35
2022/05/06 01:07:52;;;;;;;22.92;19.83;;;;;;;11.79;87.83;102533.63;5073397;28;20098;-35
2022/05/06 01:10:19;;;;;;;23.02;19.65;;;;;;;11.86;87.95;102542.69;5074269;28;20059;-35
2022/05/06 01:12:46;;;;;;;19.83;16.63;;;;;;;11.83;86.94;102537.66;5073362;28;20032;-35
2022/05/06 01:15:25;;;;;;;21.42;18.92;;;;;;;11.78;87.69;102542.78;5073657;28;20033;-35
2022/05/06 01:17:53;;;;;;;21.92;18.42;;;;;;;11.66;87.56;102528.94;5072184;28;20106;-35
2022/05/06 01:20:21;;;;;;;21.55;18.48;;;;;;;11.72;87.44;102539.00;5073257;28;20029;-35
2022/05/06 01:22:49;;;;;;;21.80;18.88;;;;;;;11.68;87.33;102545.00;5073534;28;20090;-35
2022/05/06 01:25:16;;;;;;;24.35;20.13;;;;;;;11.58;88.05;102543.47;5072964;28;20032;-35
2022/05/06 01:27:56;;;;;;;20.85;18.42;;;;;;;11.66;87.60;102545.19;5073155;28;20024;-35
2022/05/06 01:30:36;;;;;;;21.75;18.75;;;;;;;11.63;87.39;102545.59;5072937;28;20033;-35
2022/05/06 01:33:03;;;;;;;21.05;18.70;;;;;;;11.55;87.15;102546.56;5073683;28;20064;-35
2022/05/06 01:35:31;;;;;;;22.80;20.33;;;;;;;11.47;87.32;102546.72;5073661;28;20082;-35
2022/05/06 01:38:00;;;;;;;27.08;21.40;;;;;;;11.34;87.88;102538.47;5073034;28;20425;-35
2022/05/06 01:40:28;;;;;;;24.70;20.23;;;;;;;11.37;88.41;102548.94;5073275;28;20024;-35
2022/05/06 01:42:57;;;;;;;23.48;19.85;;;;;;;11.23;88.76;102539.84;5073241;28;20032;-35
2022/05/06 01:45:24;;;;;;;30.25;21.25;;;;;;;11.16;90.16;102552.47;5073485;28;20036;-35
2022/05/06 01:47:52;;;;;;;29.15;21.02;;;;;;;11.09;89.46;102549.69;5073052;28;20024;-35
2022/05/06 01:50:19;;;;;;;27.20;20.80;;;;;;;11.06;90.23;102551.94;5072991;28;20496;-35
2022/05/06 01:52:49;;;;;;;37.22;20.90;;;;;;;11.00;90.48;102550.84;5072776;28;20066;-35
2022/05/06 01:55:15;;;;;;;27.52;20.88;;;;;;;11.03;90.61;102547.78;5072972;28;20042;-35
2022/05/06 01:57:41;;;;;;;24.67;20.45;;;;;;;11.00;90.91;102553.56;5072667;28;20035;-34
2022/05/06 02:00:06;;;;;;;;;;;;;;;11.14;88.79;102551.84;5073010;28;20025;-35
2022/05/06 02:02:32;;;;;;;48.53;20.10;;;;;;;10.85;90.83;102544.66;5072613;28;19920;-34
2022/05/06 02:07:41;;;;;;;28.73;21.40;;;;;;;10.88;91.91;102555.06;5073400;28;20071;-34
2022/05/06 02:10:06;;;;;;;32.70;22.17;;;;;;;10.87;91.96;102552.56;5072533;28;20021;-34
2022/05/06 02:12:33;;;;;;;30.42;21.83;;;;;;;10.81;92.91;102548.78;5071636;28;20388;-34
2022/05/06 02:14:59;;;;;;;31.60;22.73;;;;;;;10.82;92.56;102548.56;5073175;28;20028;-34
2022/05/06 02:17:25;;;;;;;31.33;22.95;;;;;;;10.77;93.34;102548.31;5072772;28;20044;-34
2022/05/06 02:19:50;;;;;;;;;;;;;;;10.92;90.75;102547.41;5073076;28;20059;-35
2022/05/06 02:22:16;;;;;;;29.65;22.73;;;;;;;10.82;92.65;102551.28;5071431;28;19956;-34
2022/05/06 02:24:42;;;;;;;30.27;22.63;;;;;;;10.92;93.04;102552.84;5073181;28;20053;-34
2022/05/06 02:27:08;;;;;;;36.03;23.23;;;;;;;10.83;94.19;102558.38;5073199;28;20365;-34
2022/05/06 02:29:33;;;;;;;32.83;23.05;;;;;;;10.83;94.08;102552.09;5072608;28;20032;-34
2022/05/06 02:34:42;;;;;;;29.83;23.38;;;;;;;10.92;93.99;102542.00;5072848;28;20051;-34
2022/05/06 02:37:08;;;;;;;32.70;24.10;;;;;;;10.98;93.95;102550.22;5072249;28;20037;-34
2022/05/06 02:39:33;;;;;;;38.17;24.63;;;;;;;11.00;94.34;102544.59;5072489;28;20048;-34
2022/05/06 02:41:59;;;;;;;29.00;23.00;;;;;;;10.98;94.71;102549.34;5072400;28;20428;-34
2022/05/06 02:44:25;;;;;;;35.10;23.67;;;;;;;10.89;94.97;102543.25;5072775;28;20400;-34
2022/05/06 02:46:50;;;;;;;;;;;;;;;11.06;92.82;102555.50;5072644;28;20583;-34
2022/05/06 02:49:16;;;;;;;34.90;23.48;;;;;;;10.95;94.75;102556.00;5072408;28;19908;-34
2022/05/06 02:51:41;;;;;;;33.60;26.50;;;;;;;10.97;94.85;102553.94;5072219;28;20043;-34
2022/05/06 02:54:07;;;;;;;75.13;26.97;;;;;;;10.80;95.44;102547.94;5072313;28;20423;-34
2022/05/06 02:56:33;;;;;;;32.92;26.38;;;;;;;10.93;95.86;102558.06;5074469;28;20032;-34
2022/05/06 02:58:58;;;;;;;37.95;25.35;;;;;;;10.96;95.84;102560.38;5075825;28;20029;-35
2022/05/06 03:01:24;;;;;;;41.20;25.30;;;;;;;10.95;95.91;102556.00;5075719;28;20461;-35
2022/05/06 03:03:51;;;;;;;34.20;24.55;;;;;;;10.94;95.88;102554.34;5076086;28;20266;-35
2022/05/06 03:06:17;;;;;;;34.13;26.15;;;;;;;11.01;96.13;102557.94;5075788;28;20031;-35
2022/05/06 03:08:42;;;;;;;34.83;25.25;;;;;;;11.07;95.93;102562.56;5075893;28;20040;-35
2022/05/06 03:11:08;;;;;;;31.73;24.57;;;;;;;11.07;95.55;102553.63;5076234;28;20024;-35
2022/05/06 03:13:34;;;;;;;61.17;24.73;;;;;;;10.93;95.93;102555.38;5075663;28;20032;-35
2022/05/06 03:15:59;;;;;;;55.07;23.97;;;;;;;10.96;96.57;102554.97;5076436;28;20028;-35
2022/05/06 03:18:26;;;;;;;28.20;22.90;;;;;;;11.00;96.16;102547.31;5075256;28;20297;-35
2022/05/06 03:20:51;;;;;;;32.42;23.08;;;;;;;10.98;96.00;102544.81;5075970;28;20759;-35
2022/05/06 03:23:17;;;;;;;33.35;24.40;;;;;;;11.04;96.07;102544.03;5075311;28;20158;-35
2022/05/06 03:25:42;;;;;;;34.90;24.80;;;;;;;10.97;96.47;102544.97;5075986;28;20126;-35
2022/05/06 03:28:07;;;;;;;36.50;25.43;;;;;;;10.97;96.98;102532.28;5075610;28;20112;-35
2022/05/06 03:30:39;;;;;;;33.97;25.02;;;;;;;11.02;96.91;102543.38;5075281;28;20064;-35
2022/05/06 03:33:08;;;;;;;34.15;25.50;;;;;;;11.12;96.99;102548.47;5075551;28;20040;-35
2022/05/06 03:35:34;;;;;;;35.50;24.17;;;;;;;11.05;96.39;102553.81;5075152;28;20477;-35
2022/05/06 03:37:59;;;;;;;30.17;24.08;;;;;;;11.00;96.87;102541.91;5074834;28;20027;-35
2022/05/06 03:40:25;;;;;;;39.03;23.97;;;;;;;11.00;96.35;102550.84;5075096;28;20029;-35
2022/05/06 03:42:50;;;;;;;30.17;22.50;;;;;;;11.01;96.34;102555.22;5075290;28;20285;-35
2022/05/06 03:45:16;;;;;;;25.55;22.25;;;;;;;11.00;96.93;102545.44;5075833;28;20047;-35
2022/05/06 03:47:41;;;;;;;30.20;21.42;;;;;;;10.99;96.89;102551.88;5074975;28;20033;-35
2022/05/06 03:52:51;;;;;;;65.45;21.40;;;;;;;10.68;97.42;102545.91;5075157;28;20486;-35
2022/05/06 03:55:18;;;;;;;45.17;19.92;;;;;;;10.61;97.43;102553.13;5075090;28;20151;-35
2022/05/06 03:57:44;;;;;;;26.02;19.90;;;;;;;10.65;98.49;102549.00;5074493;28;20469;-35
2022/05/06 04:00:14;;;;;;;34.58;20.95;;;;;;;10.63;98.32;102554.59;5074220;28;20028;-35
2022/05/06 04:02:40;;;;;;;43.65;20.15;;;;;;;10.53;98.34;102538.66;5074605;28;20027;-35
2022/05/06 04:05:06;;;;;;;66.75;19.40;;;;;;;10.54;98.39;102555.72;5074547;28;20021;-35
2022/05/06 04:07:31;;;;;;;;;;;;;;;10.71;96.84;102559.06;5074796;28;20028;-35
2022/05/06 04:09:56;;;;;;;40.13;18.45;;;;;;;10.53;98.50;102559.47;5073177;28;19915;-35
2022/05/06 04:12:23;;;;;;;35.90;20.57;;;;;;;10.53;98.95;102554.88;5075182;28;20036;-35
2022/05/06 04:14:49;;;;;;;26.65;20.58;;;;;;;10.48;98.92;102560.03;5075088;28;20037;-35
2022/05/06 04:17:14;;;;;;;24.70;19.48;;;;;;;10.50;99.26;102554.44;5074862;28;20029;-35
2022/05/06 04:23:28;;;;;;;25.30;19.33;;;;;;;10.56;99.43;102564.50;5074246;28;20035;-35
2022/05/06 04:25:14;;;;;;;31.13;18.98;;;;;;;10.46;99.14;102558.56;5073943;28;20131;-35
2022/05/06 04:27:40;;;;;;;33.83;18.25;;;;;;;10.50;99.34;102559.84;5074659;28;20032;-35
2022/05/06 04:30:06;;;;;;;26.00;19.02;;;;;;;10.50;99.41;102566.09;5072787;28;20028;-35
2022/05/06 04:32:31;;;;;;;29.90;16.90;;;;;;;10.51;99.16;102548.00;5073973;28;20479;-35
2022/05/06 04:34:56;;;;;;;23.67;16.07;;;;;;;10.58;98.71;102568.69;5074035;28;20021;-35
2022/05/06 04:37:22;;;;;;;25.30;16.80;;;;;;;10.57;98.53;102552.66;5074116;28;20124;-35
2022/05/06 04:39:47;;;;;;;23.27;15.73;;;;;;;10.57;98.49;102572.41;5073855;28;20415;-35
2022/05/06 04:42:13;;;;;;;17.90;15.00;;;;;;;10.56;98.09;102561.78;5073799;28;20029;-35
2022/05/06 04:44:38;;;;;;;20.52;15.90;;;;;;;10.50;97.16;102551.75;5073814;28;20032;-35
2022/05/06 04:47:03;;;;;;;22.20;14.60;;;;;;;10.55;97.55;102570.94;5073738;28;20064;-35
2022/05/06 04:49:29;;;;;;;24.73;15.00;;;;;;;10.50;97.25;102579.63;5074397;28;20066;-35
2022/05/06 04:51:54;;;;;;;22.87;14.50;;;;;;;10.47;97.15;102580.00;5073673;28;20146;-35
2022/05/06 04:54:19;;;;;;;15.77;12.60;;;;;;;10.48;96.80;102578.94;5073573;28;20028;-35
2022/05/06 04:56:45;;;;;;;16.03;13.17;;;;;;;10.51;97.51;102584.00;5073906;28;20093;-35
2022/05/06 04:59:10;;;;;;;18.33;13.27;;;;;;;10.52;97.12;102587.53;5073208;28;20028;-35
2022/05/06 05:01:35;;;;;;;25.80;13.27;;;;;;;10.48;96.77;102587.06;5073735;28;20081;-35
2022/05/06 05:04:01;;;;;;;28.70;12.37;;;;;;;10.46;96.46;102591.84;5073478;28;20028;-35
2022/05/06 05:06:26;;;;;;;29.90;13.10;;;;;;;10.38;96.78;102591.94;5073741;28;20270;-35
2022/05/06 05:08:51;;;;;;;19.02;12.57;;;;;;;10.40;97.08;102598.00;5074051;28;20055;-35
2022/05/06 05:11:17;;;;;;;23.87;12.10;;;;;;;10.43;97.14;102594.91;5073619;28;20032;-35
2022/05/06 05:13:43;;;;;;;17.83;12.37;;;;;;;10.45;96.82;102603.69;5073261;28;20029;-35
2022/05/06 05:16:08;;;;;;;14.95;12.85;;;;;;;10.42;97.39;102600.50;5073215;28;20469;-35
2022/05/06 05:18:34;;;;;;;18.77;12.90;;;;;;;10.37;96.43;102590.25;5073091;28;20037;-35
2022/05/06 05:20:59;;;;;;;20.05;11.88;;;;;;;10.50;96.54;102611.25;5073060;28;20453;-35
2022/05/06 05:23:25;;;;;;;15.73;12.53;;;;;;;10.53;96.68;102616.25;5073337;28;20045;-35
2022/05/06 05:25:50;;;;;;;14.00;11.57;;;;;;;10.52;96.16;102615.44;5073832;28;20021;-35
2022/05/06 05:28:15;;;;;;;18.93;12.03;;;;;;;10.52;96.26;102615.44;5072941;28;20229;-35
2022/05/06 05:30:41;;;;;;;24.57;11.60;;;;;;;10.41;97.06;102605.09;5073117;28;20033;-35
2022/05/06 05:33:06;;;;;;;15.30;12.57;;;;;;;10.43;97.28;102613.00;5073042;28;20028;-35
2022/05/06 05:35:31;;;;;;;16.10;12.02;;;;;;;10.44;97.38;102607.44;5073467;28;20028;-35
2022/05/06 05:37:57;;;;;;;12.73;11.27;;;;;;;10.43;97.03;102616.53;5073250;28;20473;-35
2022/05/06 05:40:22;;;;;;;12.23;10.67;;;;;;;10.41;97.28;102601.53;5072878;28;20040;-35
2022/05/06 05:42:47;;;;;;;19.87;11.60;;;;;;;10.47;96.95;102625.97;5072832;28;20480;-35
2022/05/06 05:48:19;;;;;;;12.48;10.02;;;;;;;10.51;96.11;102616.47;5073278;28;20036;-35
2022/05/06 05:50:45;;;;;;;10.20;9.10;;;;;;;10.58;96.14;102619.25;5073460;28;20082;-35
2022/05/06 05:53:10;;;;;;;15.35;10.45;;;;;;;10.51;96.34;102619.16;5072617;28;20473;-35
2022/05/06 05:55:36;;;;;;;16.57;10.23;;;;;;;10.54;96.38;102617.94;5073231;28;20419;-35
2022/05/06 05:58:02;;;;;;;16.63;10.25;;;;;;;10.52;96.53;102620.84;5072897;28;20024;-35
2022/05/06 06:00:28;;;;;;;19.08;10.60;;;;;;;10.43;96.70;102603.03;5072762;28;20389;-35
2022/05/06 06:02:53;;;;;;;20.02;10.43;;;;;;;10.38;96.80;102612.72;5072480;28;20029;-35
2022/05/06 06:05:19;;;;;;;12.75;10.73;;;;;;;10.57;97.43;102612.16;5073540;28;20029;-35
2022/05/06 06:07:44;;;;;;;12.02;10.27;;;;;;;10.51;97.13;102608.34;5072675;28;20025;-35
2022/05/06 06:10:10;;;;;;;14.00;10.57;;;;;;;10.51;97.17;102599.41;5073319;28;20032;-35
2022/05/06 06:12:35;;;;;;;17.63;10.97;;;;;;;10.51;97.36;102604.81;5073456;28;20131;-35
2022/05/06 06:15:00;;;;;;;18.65;10.43;;;;;;;10.59;96.78;102615.53;5073188;28;20016;-35
2022/05/06 06:17:27;;;;;;;13.17;11.13;;;;;;;10.63;96.46;102616.81;5073538;28;20067;-35
2022/05/06 06:19:52;;;;;;;12.77;10.98;;;;;;;10.69;96.17;102613.38;5072640;28;20047;-35
2022/05/06 06:22:17;;;;;;;10.90;9.80;;;;;;;10.73;96.07;102605.69;5072966;28;20048;-35
2022/05/06 06:24:43;;;;;;;13.43;11.17;;;;;;;10.72;96.33;102625.66;5073177;28;20680;-35
2022/05/06 06:27:08;;;;;;;12.50;10.93;;;;;;;10.75;95.82;102614.47;5072611;28;20025;-35
2022/05/06 06:29:35;;;;;;;16.10;11.20;;;;;;;10.61;97.48;102596.41;5072669;28;20032;-35
2022/05/06 06:32:02;;;;;;;29.88;12.05;;;;;;;10.58;96.82;102611.97;5076786;28;20385;-35
2022/05/06 06:34:27;;;;;;;14.60;11.85;;;;;;;10.67;97.16;102601.88;5076371;28;20029;-35
2022/05/06 06:36:52;;;;;;;12.77;11.20;;;;;;;10.74;97.19;102607.41;5076590;28;20043;-35
2022/05/06 06:39:18;;;;;;;11.93;10.73;;;;;;;10.81;96.86;102609.13;5075573;28;20461;-35
2022/05/06 06:41:43;;;;;;;13.03;11.57;;;;;;;10.90;96.41;102612.59;5074649;28;20074;-35
2022/05/06 06:44:08;;;;;;;11.87;10.23;;;;;;;10.99;95.55;102622.28;5076289;28;20028;-35
2022/05/06 06:46:34;;;;;;;12.97;10.87;;;;;;;11.07;95.83;102627.56;5076561;28;20090;-35
2022/05/06 06:48:59;;;;;;;13.90;10.53;;;;;;;11.03;95.18;102623.56;5076173;28;20029;-35
2022/05/06 06:51:24;;;;;;;13.60;11.67;;;;;;;11.03;95.86;102628.16;5076156;28;20030;-35
2022/05/06 06:53:53;;;;;;;13.82;10.82;;;;;;;11.16;96.01;102627.44;5075972;28;20032;-35
2022/05/06 06:56:18;;;;;;;15.70;12.13;;;;;;;11.13;95.36;102628.69;5076501;28;20024;-35
2022/05/06 06:58:44;;;;;;;14.13;12.63;;;;;;;11.15;95.53;102637.44;5075976;28;20028;-35
2022/05/06 07:01:09;;;;;;;12.97;11.67;;;;;;;11.22;95.50;102634.78;5075707;28;20055;-35
2022/05/06 07:03:34;;;;;;;12.80;11.50;;;;;;;11.28;95.20;102642.19;5075694;28;20028;-35
2022/05/06 07:14:11;;;;;;;16.08;14.25;;;;;;;11.39;95.76;102652.50;5075978;28;20137;-35
2022/05/06 07:16:39;;;;;;;15.67;13.80;;;;;;;11.47;95.57;102656.97;5076059;28;20071;-35
2022/05/06 07:19:05;;;;;;;16.45;14.70;;;;;;;11.50;95.75;102656.56;5075099;28;20028;-35
2022/05/06 07:21:30;;;;;;;16.17;14.48;;;;;;;11.46;95.00;102639.84;5076215;28;20029;-35
2022/05/06 07:23:55;;;;;;;18.47;14.93;;;;;;;11.55;94.88;102646.81;5076076;28;20429;-35
2022/05/06 07:26:21;;;;;;;22.13;15.93;;;;;;;11.63;94.62;102651.28;5075550;28;20431;-35
2022/05/06 07:28:46;;;;;;;15.90;14.20;;;;;;;11.62;94.45;102660.44;5075363;28;20031;-35
2022/05/06 07:31:11;;;;;;;17.20;15.07;;;;;;;11.67;95.15;102659.88;5075648;28;20059;-35
2022/05/06 07:33:37;;;;;;;18.50;15.33;;;;;;;11.63;95.18;102651.28;5075266;28;20028;-34
2022/05/06 07:36:02;;;;;;;18.43;16.43;;;;;;;11.65;95.13;102667.34;5075336;28;20439;-34
2022/05/06 07:38:28;;;;;;;18.50;16.50;;;;;;;11.71;94.77;102669.25;5075449;28;20317;-34
2022/05/06 07:40:53;;;;;;;18.40;16.50;;;;;;;11.71;95.24;102670.13;5075689;28;20032;-34
2022/05/06 07:43:18;;;;;;;18.65;16.75;;;;;;;11.70;95.15;102673.00;5074406;28;20082;-34
2022/05/06 07:45:44;;;;;;;17.63;15.47;;;;;;;11.70;95.24;102664.88;5075664;28;20028;-34
2022/05/06 07:48:10;;;;;;;21.08;17.35;;;;;;;11.70;95.23;102665.72;5075028;28;20040;-34
2022/05/06 07:50:44;;;;;;;18.67;16.65;;;;;;;11.77;95.31;102663.09;5075010;28;20036;-34
2022/05/06 07:53:10;;;;;;;21.50;18.30;;;;;;;11.93;94.96;102675.56;5075261;28;20384;-34
2022/05/06 07:55:36;;;;;;;21.98;18.17;;;;;;;11.96;94.85;102676.00;5074913;28;20039;-34
2022/05/06 07:58:02;;;;;;;20.10;17.92;;;;;;;12.07;94.57;102670.03;5074719;28;20024;-34
2022/05/06 08:00:28;;;;;;;;;;;;;;;12.26;94.06;102681.25;5075086;28;20449;-34
2022/05/06 08:05:40;;;;;;;19.90;17.73;;;;;;;12.17;94.10;102679.72;5075027;28;20443;-34
2022/05/06 08:08:06;;;;;;;23.45;18.95;;;;;;;12.29;93.85;102684.38;5074646;28;20031;-34
2022/05/06 08:10:31;;;;;;;20.65;17.77;;;;;;;12.30;93.89;102669.81;5075276;28;20029;-34
2022/05/06 08:12:57;;;;;;;20.73;18.53;;;;;;;12.51;93.66;102682.47;5074355;28;20024;-34
2022/05/06 08:15:23;;;;;;;20.08;17.98;;;;;;;12.45;92.56;102671.56;5074827;28;20274;-34
2022/05/06 08:17:49;;;;;;;20.33;18.20;;;;;;;12.55;92.42;102686.44;5075279;28;20434;-35
2022/05/06 08:20:15;;;;;;;18.73;16.67;;;;;;;12.59;91.82;102684.16;5074904;28;20036;-34
2022/05/06 08:22:41;;;;;;;18.77;16.77;;;;;;;12.46;91.56;102675.94;5074604;28;20040;-34
2022/05/06 08:25:08;;;;;;;19.17;17.10;;;;;;;12.47;91.61;102678.47;5074287;28;20031;-34
2022/05/06 08:27:44;;;;;;;20.05;17.58;;;;;;;12.52;92.15;102677.88;5074274;28;20036;-35
2022/05/06 08:30:14;;;;;;;20.58;18.13;;;;;;;12.43;91.87;102679.06;5074257;28;20036;-34
2022/05/06 08:32:40;;;;;;;21.35;17.90;;;;;;;12.65;92.07;102679.84;5074489;28;20025;-34
2022/05/06 08:35:07;;;;;;;;;;;;;;;12.86;91.61;102674.28;5074306;28;20530;-34
2022/05/06 08:37:45;;;;;;;17.33;15.52;;;;;;;12.89;91.25;102674.75;5074669;28;19916;-35
2022/05/06 08:40:20;;;;;;;20.27;17.15;;;;;;;12.96;92.46;102666.59;5073632;28;20024;-34
2022/05/06 08:42:49;;;;;;;19.80;17.30;;;;;;;12.98;91.09;102661.81;5074139;28;20040;-34
2022/05/06 08:50:53;;;;;;;17.55;15.70;;;;;;;13.36;88.93;102658.63;5074436;28;20133;-34
2022/05/06 08:53:20;;;;;;;17.83;15.93;;;;;;;13.37;88.27;102660.28;5073742;28;20113;-34
2022/05/06 08:55:46;;;;;;;18.38;16.27;;;;;;;13.46;88.09;102661.78;5074425;28;20032;-35
2022/05/06 08:58:12;;;;;;;21.40;18.35;;;;;;;13.60;87.62;102655.31;5073701;28;20093;-34
2022/05/06 09:00:37;;;;;;;24.60;18.27;;;;;;;13.97;88.00;102653.06;5074421;28;20450;-34
2022/05/06 09:03:02;;;;;;;19.80;16.38;;;;;;;14.01;85.52;102642.59;5073843;28;20020;-34
2022/05/06 09:05:28;;;;;;;16.15;14.43;;;;;;;14.16;85.75;102660.38;5073585;28;20032;-34
2022/05/06 09:08:03;;;;;;;18.58;16.58;;;;;;;14.14;85.25;102648.84;5073874;28;20032;-34
2022/05/06 09:10:29;;;;;;;18.67;16.67;;;;;;;14.17;85.11;102655.75;5073300;28;20024;-34
2022/05/06 09:12:56;;;;;;;;;;;;;;;14.39;85.48;102654.44;5073986;28;20457;-34
2022/05/06 09:18:07;;;;;;;16.83;14.45;;;;;;;14.43;83.15;102646.69;5073661;28;20340;-35
2022/05/06 09:20:33;;;;;;;16.20;14.45;;;;;;;14.75;83.06;102647.69;5073763;28;20032;-35
2022/05/06 09:23:19;;;;;;;15.10;13.50;;;;;;;15.08;82.28;102639.38;5073132;28;20123;-35
2022/05/06 09:25:49;;;;;;;15.80;13.90;;;;;;;15.08;80.03;102653.00;5073038;28;20049;-35
2022/05/06 09:28:26;;;;;;;15.43;13.80;;;;;;;15.25;80.05;102645.16;5072920;28;20027;-35
2022/05/06 09:31:04;;;;;;;14.20;12.80;;;;;;;15.25;79.88;102642.44;5073984;28;20028;-35
2022/05/06 09:33:40;;;;;;;15.55;13.80;;;;;;;15.20;79.45;102651.25;5072970;28;20457;-35
2022/05/06 09:36:29;;;;;;;15.48;13.73;;;;;;;15.15;80.06;102640.19;5073102;28;20039;-35
2022/05/06 09:39:05;;;;;;;15.27;13.27;;;;;;;15.18;79.71;102628.03;5073397;28;20108;-35
2022/05/06 09:41:31;;;;;;;16.60;14.87;;;;;;;14.93;80.63;102638.81;5073130;28;20028;-35
2022/05/06 09:44:00;;;;;;;15.60;14.00;;;;;;;15.20;80.16;102637.63;5072785;28;20021;-35
2022/05/06 09:46:26;;;;;;;15.52;13.77;;;;;;;15.45;79.00;102631.41;5072947;28;20060;-35
2022/05/06 09:48:58;;;;;;;18.00;14.83;;;;;;;15.64;77.73;102627.72;5073092;28;20114;-35
2022/05/06 09:51:27;;;;;;;14.63;13.05;;;;;;;15.74;78.17;102620.94;5073395;28;20251;-35
2022/05/06 09:53:53;;;;;;;13.77;12.38;;;;;;;15.95;76.30;102626.00;5072944;28;20036;-35
2022/05/06 09:56:20;;;;;;;13.85;11.63;;;;;;;16.00;74.71;102625.31;5073068;28;20104;-35
2022/05/06 09:58:46;;;;;;;12.85;11.30;;;;;;;16.25;74.33;102612.50;5073019;28;20029;-35
2022/05/06 10:01:13;;;;;;;13.90;11.98;;;;;;;16.11;73.72;102619.16;5073496;28;20027;-35
2022/05/06 10:03:39;;;;;;;14.05;12.40;;;;;;;16.25;73.89;102625.28;5073437;28;20107;-35
2022/05/06 10:06:06;;;;;;;13.20;11.80;;;;;;;16.44;73.87;102625.06;5076549;28;20413;-35
2022/05/06 10:08:33;;;;;;;13.52;12.07;;;;;;;16.47;73.13;102623.81;5076940;28;20431;-35
2022/05/06 10:11:04;;;;;;;14.05;12.27;;;;;;;16.32;73.22;102607.78;5077429;28;20043;-35
2022/05/06 10:13:32;;;;;;;13.38;11.77;;;;;;;16.73;73.40;102606.28;5076761;28;20031;-35
2022/05/06 10:15:58;;;;;;;12.35;11.05;;;;;;;17.08;72.01;102620.16;5077629;28;20024;-35
2022/05/06 10:18:42;;;;;;;;;;;;;;;17.35;73.53;102603.34;5077377;28;20598;-35
2022/05/06 10:21:08;;;;;;;14.25;11.55;;;;;;;17.42;71.40;102609.53;5077054;28;20057;-35
2022/05/06 10:23:50;;;;;;;;;;;;;;;17.67;71.56;102599.25;5077322;28;20489;-35
2022/05/06 10:26:34;;;;;;;12.93;10.27;;;;;;;17.91;69.14;102597.41;5077340;28;20306;-36
2022/05/06 10:34:30;;;;;;;12.65;9.43;;;;;;;18.19;66.81;102590.34;5076532;28;20079;-35
2022/05/06 10:36:57;;;;;;;;;;;;;;;18.57;68.79;102589.81;5077481;28;20056;-35
2022/05/06 10:39:27;;;;;;;12.20;9.95;;;;;;;18.22;65.11;102579.75;5076368;28;19912;-34
2022/05/06 10:41:58;;;;;;;11.23;9.55;;;;;;;17.97;65.66;102595.63;5077039;28;20079;-35
2022/05/06 10:44:34;;;;;;;11.85;9.82;;;;;;;17.94;65.67;102580.47;5076109;28;20038;-35
2022/05/06 10:47:00;;;;;;;10.73;9.60;;;;;;;18.16;64.45;102583.47;5076436;28;20099;-35
2022/05/06 10:49:34;;;;;;;;;;;;;;;18.47;66.60;102579.47;5076241;28;20115;-35
2022/05/06 10:52:28;;;;;;;11.02;9.30;;;;;;;18.55;64.90;102580.19;5076920;28;20300;-35
2022/05/06 10:54:58;;;;;;;9.00;8.05;;;;;;;18.64;62.30;102574.09;5076308;28;20040;-35
2022/05/06 10:57:28;;;;;;;8.73;7.40;;;;;;;18.87;61.46;102569.59;5075753;28;20089;-35
2022/05/06 10:59:54;;;;;;;11.32;8.80;;;;;;;18.71;60.35;102574.78;5076201;28;20170;-35
2022/05/06 11:02:25;;;;;;;10.95;8.60;;;;;;;18.85;61.31;102574.50;5076141;28;20033;-35
2022/05/06 11:05:01;;;;;;;9.88;8.35;;;;;;;19.13;62.97;102570.91;5076701;28;20388;-35
2022/05/06 11:07:29;;;;;;;11.30;8.97;;;;;;;19.19;60.68;102562.53;5075679;28;20384;-35
2022/05/06 11:09:55;;;;;;;14.25;8.48;;;;;;;19.41;59.35;102559.88;5075533;28;20481;-36
2022/05/06 11:12:30;;;;;;;;;;;;;;;19.83;62.31;102556.75;5076293;28;20036;-35
2022/05/06 11:14:59;;;;;;;14.38;8.50;;;;;;;19.69;57.53;102547.19;5075902;28;19931;-35
2022/05/06 11:17:27;;;;;;;10.57;9.10;;;;;;;19.78;57.77;102556.69;5074196;28;20040;-34
2022/05/06 11:19:52;;;;;;;9.95;8.15;;;;;;;20.06;56.08;102558.47;5075903;28;20025;-35
2022/05/06 11:22:20;;;;;;;;;;;;;;;20.38;57.54;102555.03;5074724;28;20385;-35
2022/05/06 11:24:46;;;;;;;9.32;6.85;;;;;;;20.30;54.70;102559.91;5075890;28;19917;-35
2022/05/06 11:27:15;;;;;;;;;;;;;;;20.35;56.05;102553.63;5076333;28;20354;-35
2022/05/06 11:30:17;;;;;;;10.32;7.65;;;;;;;20.25;57.11;102545.22;5075535;28;19930;-35
2022/05/06 11:32:50;;;;;;;9.20;8.05;;;;;;;20.09;55.86;102544.22;5052984;28;20071;-35
2022/05/06 11:35:19;;;;;;;10.15;6.90;;;;;;;20.25;55.26;102526.00;5053012;28;20048;-35
2022/05/06 11:37:45;;;;;;;8.23;6.68;;;;;;;20.41;53.10;102536.13;5053532;28;20489;-35
2022/05/06 11:42:51;;;;;;;6.85;6.07;;;;;;;20.40;53.01;102541.84;5053072;28;20393;-35
2022/05/06 11:48:12;;;;;;;9.77;8.02;;;;;;;20.83;53.05;102532.75;5053573;28;20393;-35
2022/05/06 11:50:39;;;;;;;10.98;7.95;;;;;;;21.15;52.25;102521.81;5052278;28;20040;-35
2022/05/06 11:53:10;;;;;;;13.00;8.07;;;;;;;21.29;52.61;102528.53;5052704;28;20366;-35
2022/05/06 11:55:37;;;;;;;10.18;8.23;;;;;;;20.98;50.99;102529.34;5052824;28;20055;-35
2022/05/06 11:58:09;;;;;;;6.97;5.82;;;;;;;21.21;50.42;102526.25;5052476;28;20179;-35
2022/05/06 12:00:34;;;;;;;8.02;6.00;;;;;;;21.32;49.87;102519.75;5052922;28;20039;-35